Time,TemperatureF,DewpointF,PressureIn,WindDirection,WindDirectionDegrees,WindSpeedMPH,WindSpeedGustMPH,Humidity,HourlyPrecipIn,Conditions,Clouds,dailyrainin,SoftwareType,DateUTC
2013-02-28 00:04:00,45.8,40.3,30.34,WNW,298,0.0,0.0,81,0.00,,,0.00,LWC V1.12 B30,2013-02-28 08:04:00,
2013-02-28 00:09:00,45.6,40.1,30.34,WNW,299,1.0,1.0,81,0.00,,,0.00,LWC V1.12 B30,2013-02-28 08:09:00,
2013-02-28 00:17:00,45.5,40.3,30.34,WNW,297,0.0,0.0,82,0.00,,,0.00,LWC V1.12 B30,2013-02-28 08:17:00,
2013-02-28 00:22:00,45.3,40.4,30.34,West,268,0.0,1.0,83,0.00,,,0.00,LWC V1.12 B30,2013-02-28 08:22:00,
2013-02-28 00:27:00,45.3,40.4,30.34,WNW,285,1.0,1.0,83,0.00,,,0.00,LWC V1.12 B30,2013-02-28 08:27:00,
2013-02-28 00:32:00,45.2,40.3,30.34,WNW,285,0.0,0.0,83,0.00,,,0.00,LWC V1.12 B30,2013-02-28 08:32:00,
2013-02-28 00:37:00,45.1,40.2,30.34,WNW,285,0.0,0.0,83,0.00,,,0.00,LWC V1.12 B30,2013-02-28 08:37:00,
2013-02-28 00:42:00,45.0,40.5,30.34,WNW,285,0.0,0.0,84,0.00,,,0.00,LWC V1.12 B30,2013-02-28 08:42:00,
2013-02-28 00:47:00,44.9,40.4,30.34,WNW,285,0.0,0.0,84,0.00,,,0.00,LWC V1.12 B30,2013-02-28 08:47:00,
2013-02-28 00:52:00,44.9,40.7,30.34,NW,304,1.0,1.0,85,0.00,,,0.00,LWC V1.12 B30,2013-02-28 08:52:00,
2013-02-28 00:57:00,44.9,40.4,30.34,NW,304,0.0,0.0,84,0.00,,,0.00,LWC V1.12 B30,2013-02-28 08:57:00,
2013-02-28 01:02:00,44.6,40.1,30.34,NW,304,0.0,0.0,84,0.00,,,0.00,LWC V1.12 B30,2013-02-28 09:02:00,
2013-02-28 01:07:00,44.4,39.9,30.34,NW,304,0.0,0.0,84,0.00,,,0.00,LWC V1.12 B30,2013-02-28 09:07:00,
2013-02-28 01:12:00,44.3,40.1,30.34,WNW,303,0.0,0.0,85,0.00,,,0.00,LWC V1.12 B30,2013-02-28 09:12:00,
2013-02-28 01:17:00,44.1,39.9,30.34,WNW,303,0.0,0.0,85,0.00,,,0.00,LWC V1.12 B30,2013-02-28 09:17:00,
2013-02-28 01:22:00,44.1,39.9,30.34,NW,304,0.0,1.0,85,0.00,,,0.00,LWC V1.12 B30,2013-02-28 09:22:00,
2013-02-28 01:27:00,44.2,40.3,30.34,NW,304,0.0,0.0,86,0.00,,,0.00,LWC V1.12 B30,2013-02-28 09:27:00,
2013-02-28 01:32:00,44.1,39.9,30.34,NW,304,0.0,0.0,85,0.00,,,0.00,LWC V1.12 B30,2013-02-28 09:32:00,
2013-02-28 01:37:00,44.0,40.1,30.34,NW,304,0.0,0.0,86,0.00,,,0.00,LWC V1.12 B30,2013-02-28 09:37:00,
2013-02-28 01:42:00,44.0,40.1,30.34,WNW,303,0.0,1.0,86,0.00,,,0.00,LWC V1.12 B30,2013-02-28 09:42:00,
2013-02-28 01:47:00,44.0,40.1,30.34,WNW,299,0.0,1.0,86,0.00,,,0.00,LWC V1.12 B30,2013-02-28 09:47:00,
2013-02-28 01:52:00,44.0,40.1,30.34,NW,304,0.0,0.0,86,0.00,,,0.00,LWC V1.12 B30,2013-02-28 09:52:00,
2013-02-28 01:57:00,43.9,40.0,30.34,NW,304,0.0,0.0,86,0.00,,,0.00,LWC V1.12 B30,2013-02-28 09:57:00,
2013-02-28 02:02:00,44.0,40.1,30.34,WNW,303,0.0,1.0,86,0.00,,,0.00,LWC V1.12 B30,2013-02-28 10:02:00,
2013-02-28 02:07:00,43.9,40.0,30.34,NW,304,0.0,0.0,86,0.00,,,0.00,LWC V1.12 B30,2013-02-28 10:07:00,
2013-02-28 02:12:00,43.6,39.7,30.34,NW,304,0.0,0.0,86,0.00,,,0.00,LWC V1.12 B30,2013-02-28 10:12:00,
2013-02-28 02:17:00,43.3,39.4,30.34,WNW,303,0.0,0.0,86,0.00,,,0.00,LWC V1.12 B30,2013-02-28 10:17:00,
2013-02-28 02:22:00,43.2,39.3,30.34,NW,304,0.0,0.0,86,0.00,,,0.00,LWC V1.12 B30,2013-02-28 10:22:00,
2013-02-28 02:27:00,43.0,39.4,30.34,NW,304,0.0,0.0,87,0.00,,,0.00,LWC V1.12 B30,2013-02-28 10:27:00,
2013-02-28 02:32:00,42.9,39.3,30.34,NW,304,0.0,0.0,87,0.00,,,0.00,LWC V1.12 B30,2013-02-28 10:32:00,
2013-02-28 02:36:00,42.5,38.9,30.34,NW,304,0.0,0.0,87,0.00,,,0.00,LWC V1.12 B30,2013-02-28 10:36:00,
2013-02-28 02:41:00,42.4,38.8,30.34,NW,304,0.0,0.0,87,0.00,,,0.00,LWC V1.12 B30,2013-02-28 10:41:00,
2013-02-28 02:47:00,42.2,38.9,30.34,WNW,303,0.0,0.0,88,0.00,,,0.00,LWC V1.12 B30,2013-02-28 10:47:00,
2013-02-28 02:52:00,42.1,38.8,30.34,NW,304,0.0,0.0,88,0.00,,,0.00,LWC V1.12 B30,2013-02-28 10:52:00,
2013-02-28 02:57:00,42.2,38.9,30.34,NW,304,0.0,0.0,88,0.00,,,0.00,LWC V1.12 B30,2013-02-28 10:57:00,
2013-02-28 03:02:00,42.2,38.9,30.34,WNW,303,0.0,0.0,88,0.00,,,0.00,LWC V1.12 B30,2013-02-28 11:02:00,
2013-02-28 03:07:00,42.2,39.2,30.34,NW,304,0.0,0.0,89,0.00,,,0.00,LWC V1.12 B30,2013-02-28 11:07:00,
2013-02-28 03:12:00,42.2,39.2,30.34,NW,304,0.0,0.0,89,0.00,,,0.00,LWC V1.12 B30,2013-02-28 11:12:00,
2013-02-28 03:17:00,42.2,38.9,30.33,NW,304,0.0,0.0,88,0.00,,,0.00,LWC V1.12 B30,2013-02-28 11:17:00,
2013-02-28 03:22:00,42.2,38.9,30.33,NW,304,0.0,0.0,88,0.00,,,0.00,LWC V1.12 B30,2013-02-28 11:22:00,
2013-02-28 03:27:00,42.2,39.2,30.33,NW,304,0.0,0.0,89,0.00,,,0.00,LWC V1.12 B30,2013-02-28 11:27:00,
2013-02-28 03:32:00,42.2,38.9,30.33,NW,304,0.0,0.0,88,0.00,,,0.00,LWC V1.12 B30,2013-02-28 11:32:00,
2013-02-28 03:37:00,42.1,38.8,30.33,NW,304,0.0,0.0,88,0.00,,,0.00,LWC V1.12 B30,2013-02-28 11:37:00,
2013-02-28 03:42:00,42.0,39.0,30.33,NW,304,0.0,0.0,89,0.00,,,0.00,LWC V1.12 B30,2013-02-28 11:42:00,
2013-02-28 03:47:00,42.0,39.0,30.33,NW,304,0.0,0.0,89,0.00,,,0.00,LWC V1.12 B30,2013-02-28 11:47:00,
2013-02-28 03:52:00,42.0,39.0,30.33,WNW,303,0.0,0.0,89,0.00,,,0.00,LWC V1.12 B30,2013-02-28 11:52:00,
2013-02-28 03:57:00,41.9,38.9,30.33,NW,304,0.0,0.0,89,0.00,,,0.00,LWC V1.12 B30,2013-02-28 11:57:00,
2013-02-28 04:02:00,41.9,38.9,30.34,NW,304,0.0,0.0,89,0.00,,,0.00,LWC V1.12 B30,2013-02-28 12:02:00,
2013-02-28 04:07:00,41.9,38.9,30.34,NW,304,0.0,0.0,89,0.00,,,0.00,LWC V1.12 B30,2013-02-28 12:07:00,
2013-02-28 04:12:00,41.6,38.6,30.34,NW,304,0.0,0.0,89,0.00,,,0.00,LWC V1.12 B30,2013-02-28 12:12:00,
2013-02-28 04:17:00,41.5,38.5,30.33,NW,304,0.0,0.0,89,0.00,,,0.00,LWC V1.12 B30,2013-02-28 12:17:00,
2013-02-28 04:22:00,41.6,38.9,30.33,WNW,303,0.0,0.0,90,0.00,,,0.00,LWC V1.12 B30,2013-02-28 12:22:00,
2013-02-28 04:27:00,41.6,38.9,30.33,NW,304,0.0,0.0,90,0.00,,,0.00,LWC V1.12 B30,2013-02-28 12:27:00,
2013-02-28 04:32:00,41.8,39.1,30.34,NW,304,0.0,0.0,90,0.00,,,0.00,LWC V1.12 B30,2013-02-28 12:32:00,
2013-02-28 04:37:00,41.7,38.7,30.34,NW,304,0.0,0.0,89,0.00,,,0.00,LWC V1.12 B30,2013-02-28 12:37:00,
2013-02-28 04:42:00,41.7,39.0,30.34,NW,304,0.0,0.0,90,0.00,,,0.00,LWC V1.12 B30,2013-02-28 12:42:00,
2013-02-28 04:47:00,41.7,39.0,30.34,NW,304,0.0,0.0,90,0.00,,,0.00,LWC V1.12 B30,2013-02-28 12:47:00,
2013-02-28 04:52:00,41.7,39.0,30.34,NW,304,0.0,0.0,90,0.00,,,0.00,LWC V1.12 B30,2013-02-28 12:52:00,
2013-02-28 04:57:00,41.6,38.9,30.34,NW,304,0.0,0.0,90,0.00,,,0.00,LWC V1.12 B30,2013-02-28 12:57:00,
2013-02-28 05:02:00,41.5,38.8,30.34,NW,304,0.0,0.0,90,0.00,,,0.00,LWC V1.12 B30,2013-02-28 13:02:00,
2013-02-28 05:07:00,41.4,38.7,30.34,WNW,303,0.0,0.0,90,0.00,,,0.00,LWC V1.12 B30,2013-02-28 13:07:00,
2013-02-28 05:12:00,41.4,38.7,30.34,NW,304,0.0,0.0,90,0.00,,,0.00,LWC V1.12 B30,2013-02-28 13:12:00,
2013-02-28 05:17:00,41.4,39.0,30.34,West,281,0.0,2.0,91,0.00,,,0.00,LWC V1.12 B30,2013-02-28 13:17:00,
2013-02-28 05:22:00,41.6,39.2,30.34,WNW,294,0.0,1.0,91,0.00,,,0.00,LWC V1.12 B30,2013-02-28 13:22:00,
2013-02-28 05:27:00,41.7,39.3,30.34,WNW,294,0.0,1.0,91,0.00,,,0.00,LWC V1.12 B30,2013-02-28 13:27:00,
2013-02-28 05:32:00,41.9,39.5,30.35,WNW,294,0.0,0.0,91,0.00,,,0.00,LWC V1.12 B30,2013-02-28 13:32:00,
2013-02-28 05:37:00,41.8,39.1,30.35,WNW,294,0.0,0.0,90,0.00,,,0.00,LWC V1.12 B30,2013-02-28 13:37:00,
2013-02-28 05:42:00,41.6,38.9,30.35,WNW,294,0.0,0.0,90,0.00,,,0.00,LWC V1.12 B30,2013-02-28 13:42:00,
2013-02-28 05:47:00,41.6,39.2,30.35,WNW,294,0.0,0.0,91,0.00,,,0.00,LWC V1.12 B30,2013-02-28 13:47:00,
2013-02-28 05:52:00,41.5,38.8,30.35,WNW,294,0.0,0.0,90,0.00,,,0.00,LWC V1.12 B30,2013-02-28 13:52:00,
2013-02-28 05:57:00,41.8,39.4,30.35,WNW,294,0.0,0.0,91,0.00,,,0.00,LWC V1.12 B30,2013-02-28 13:57:00,
2013-02-28 06:02:00,41.5,38.8,30.36,WNW,294,0.0,0.0,90,0.00,,,0.00,LWC V1.12 B30,2013-02-28 14:02:00,
2013-02-28 06:07:00,41.3,38.9,30.36,WNW,294,0.0,0.0,91,0.00,,,0.00,LWC V1.12 B30,2013-02-28 14:07:00,
2013-02-28 06:12:00,41.4,39.0,30.36,WNW,294,0.0,0.0,91,0.00,,,0.00,LWC V1.12 B30,2013-02-28 14:12:00,
2013-02-28 06:17:00,41.3,38.9,30.37,WNW,294,0.0,0.0,91,0.00,,,0.00,LWC V1.12 B30,2013-02-28 14:17:00,
2013-02-28 06:22:00,41.5,39.1,30.37,WNW,294,0.0,0.0,91,0.00,,,0.00,LWC V1.12 B30,2013-02-28 14:22:00,
2013-02-28 06:27:00,41.6,39.2,30.37,WNW,294,0.0,0.0,91,0.00,,,0.00,LWC V1.12 B30,2013-02-28 14:27:00,
2013-02-28 06:32:00,41.8,39.6,30.37,WNW,294,0.0,0.0,92,0.00,,,0.00,LWC V1.12 B30,2013-02-28 14:32:00,
2013-02-28 06:37:00,42.0,39.6,30.37,WNW,296,1.0,1.0,91,0.00,,,0.00,LWC V1.12 B30,2013-02-28 14:37:00,
2013-02-28 06:42:00,42.2,39.8,30.37,WNW,295,0.0,1.0,91,0.00,,,0.00,LWC V1.12 B30,2013-02-28 14:42:00,
2013-02-28 06:46:00,42.4,40.0,30.38,WNW,295,0.0,0.0,91,0.00,,,0.00,LWC V1.12 B30,2013-02-28 14:46:00,
2013-02-28 06:51:00,42.3,39.9,30.38,WNW,295,0.0,0.0,91,0.00,,,0.00,LWC V1.12 B30,2013-02-28 14:51:00,
2013-02-28 06:57:00,42.4,40.0,30.38,WNW,295,0.0,0.0,91,0.00,,,0.00,LWC V1.12 B30,2013-02-28 14:57:00,
2013-02-28 07:00:00,42.5,40.1,30.38,WNW,295,0.0,0.0,91,0.00,,,0.00,LWC V1.12 B30,2013-02-28 15:00:00,
2013-02-28 07:05:00,42.7,40.3,30.37,WNW,295,0.0,0.0,91,0.00,,,0.00,LWC V1.12 B30,2013-02-28 15:05:00,
2013-02-28 07:10:00,43.1,40.7,30.37,WNW,295,0.0,0.0,91,0.00,,,0.00,LWC V1.12 B30,2013-02-28 15:10:00,
2013-02-28 07:15:00,43.8,41.3,30.37,WNW,295,0.0,0.0,91,0.00,,,0.00,LWC V1.12 B30,2013-02-28 15:15:00,
2013-02-28 07:20:00,44.5,42.0,30.38,WNW,295,0.0,0.0,91,0.00,,,0.00,LWC V1.12 B30,2013-02-28 15:20:00,
2013-02-28 07:25:00,45.3,42.5,30.38,WNW,295,0.0,0.0,90,0.00,,,0.00,LWC V1.12 B30,2013-02-28 15:25:00,
2013-02-28 07:30:00,46.6,44.1,30.38,WNW,295,0.0,0.0,91,0.00,,,0.00,LWC V1.12 B30,2013-02-28 15:30:00,
2013-02-28 07:35:00,46.9,43.8,30.39,WNW,295,0.0,0.0,89,0.00,,,0.00,LWC V1.12 B30,2013-02-28 15:35:00,
2013-02-28 07:40:00,48.0,44.6,30.39,WNW,284,0.0,1.0,88,0.00,,,0.00,LWC V1.12 B30,2013-02-28 15:40:00,
2013-02-28 07:42:00,48.4,44.1,30.39,WNW,284,0.0,0.0,85,0.00,,,0.00,LWC V1.12 B30,2013-02-28 15:42:00,
2013-02-28 07:47:00,48.4,44.1,30.39,WNW,284,0.0,0.0,85,0.00,,,0.00,LWC V1.12 B30,2013-02-28 15:47:00,
2013-02-28 07:52:00,48.9,44.9,30.39,WNW,283,0.0,0.0,86,0.00,,,0.00,LWC V1.12 B30,2013-02-28 15:52:00,
2013-02-28 07:57:00,49.3,45.0,30.39,WNW,284,0.0,0.0,85,0.00,,,0.00,LWC V1.12 B30,2013-02-28 15:57:00,
2013-02-28 08:02:00,50.7,46.4,30.40,WNW,284,0.0,0.0,85,0.00,,,0.00,LWC V1.12 B30,2013-02-28 16:02:00,
2013-02-28 08:07:00,52.2,47.2,30.40,SE,133,1.0,1.0,83,0.00,,,0.00,LWC V1.12 B30,2013-02-28 16:07:00,
2013-02-28 08:12:00,52.3,47.3,30.40,SE,134,0.0,1.0,83,0.00,,,0.00,LWC V1.12 B30,2013-02-28 16:12:00,
2013-02-28 08:17:00,52.5,47.5,30.40,SE,133,0.0,1.0,83,0.00,,,0.00,LWC V1.12 B30,2013-02-28 16:17:00,
2013-02-28 08:22:00,53.2,47.8,30.40,SE,127,2.0,3.0,82,0.00,,,0.00,LWC V1.12 B30,2013-02-28 16:22:00,
2013-02-28 08:27:00,53.0,47.7,30.40,ESE,109,0.0,1.0,82,0.00,,,0.00,LWC V1.12 B30,2013-02-28 16:27:00,
2013-02-28 08:32:00,53.5,48.1,30.41,South,180,1.0,2.0,82,0.00,,,0.00,LWC V1.12 B30,2013-02-28 16:32:00,
2013-02-28 08:37:00,53.5,47.8,30.41,SE,126,2.0,2.0,81,0.00,,,0.00,LWC V1.12 B30,2013-02-28 16:37:00,
2013-02-28 08:42:00,53.8,47.8,30.41,South,179,2.0,4.0,80,0.00,,,0.00,LWC V1.12 B30,2013-02-28 16:42:00,
2013-02-28 08:47:00,53.8,47.8,30.41,SSE,164,1.0,2.0,80,0.00,,,0.00,LWC V1.12 B30,2013-02-28 16:47:00,
2013-02-28 08:52:00,54.4,48.0,30.41,South,187,2.0,2.0,79,0.00,,,0.00,LWC V1.12 B30,2013-02-28 16:52:00,
2013-02-28 08:57:00,54.8,47.4,30.41,SSE,159,2.0,3.0,76,0.00,,,0.00,LWC V1.12 B30,2013-02-28 16:57:00,
2013-02-28 09:02:00,55.0,47.6,30.41,ESE,104,2.0,2.0,76,0.00,,,0.00,LWC V1.12 B30,2013-02-28 17:02:00,
2013-02-28 09:07:00,55.4,47.3,30.41,SSE,156,0.0,3.0,74,0.00,,,0.00,LWC V1.12 B30,2013-02-28 17:07:00,
2013-02-28 09:12:00,55.4,47.6,30.41,ESE,112,1.0,1.0,75,0.00,,,0.00,LWC V1.12 B30,2013-02-28 17:12:00,
2013-02-28 09:17:00,55.4,47.6,30.41,ENE,63,0.0,1.0,75,0.00,,,0.00,LWC V1.12 B30,2013-02-28 17:17:00,
2013-02-28 09:22:00,56.0,48.2,30.41,West,270,0.0,1.0,75,0.00,,,0.00,LWC V1.12 B30,2013-02-28 17:22:00,
2013-02-28 09:27:00,57.0,48.4,30.41,NE,39,1.0,3.0,73,0.00,,,0.00,LWC V1.12 B30,2013-02-28 17:27:00,
2013-02-28 09:32:00,57.5,48.9,30.41,South,169,0.0,1.0,73,0.00,,,0.00,LWC V1.12 B30,2013-02-28 17:32:00,
2013-02-28 09:37:00,58.1,48.4,30.41,East,88,2.0,3.0,70,0.00,,,0.00,LWC V1.12 B30,2013-02-28 17:37:00,
2013-02-28 09:42:00,58.1,48.7,30.41,East,81,3.0,4.0,71,0.00,,,0.00,LWC V1.12 B30,2013-02-28 17:42:00,
2013-02-28 09:47:00,58.4,48.7,30.41,NE,39,2.0,2.0,70,0.00,,,0.00,LWC V1.12 B30,2013-02-28 17:47:00,
2013-02-28 09:52:00,58.4,48.7,30.41,NE,35,2.0,3.0,70,0.00,,,0.00,LWC V1.12 B30,2013-02-28 17:52:00,
2013-02-28 09:57:00,58.6,48.8,30.41,NE,50,2.0,4.0,70,0.00,,,0.00,LWC V1.12 B30,2013-02-28 17:57:00,
2013-02-28 10:02:00,58.9,48.7,30.41,North,11,3.0,5.0,69,0.00,,,0.00,LWC V1.12 B30,2013-02-28 18:02:00,
2013-02-28 10:07:00,59.0,49.2,30.41,NE,55,2.0,3.0,70,0.00,,,0.00,LWC V1.12 B30,2013-02-28 18:07:00,
2013-02-28 10:12:00,59.5,48.9,30.41,NNE,26,4.0,5.0,68,0.00,,,0.00,LWC V1.12 B30,2013-02-28 18:12:00,
2013-02-28 10:17:00,59.8,49.2,30.41,ENE,61,0.0,1.0,68,0.00,,,0.00,LWC V1.12 B30,2013-02-28 18:17:00,
2013-02-28 10:22:00,60.3,49.3,30.41,ESE,105,2.0,5.0,67,0.00,,,0.00,LWC V1.12 B30,2013-02-28 18:22:00,
2013-02-28 10:27:00,60.6,49.2,30.41,NNE,17,0.0,3.0,66,0.00,,,0.00,LWC V1.12 B30,2013-02-28 18:27:00,
2013-02-28 10:32:00,60.8,49.4,30.41,East,82,2.0,4.0,66,0.00,,,0.00,LWC V1.12 B30,2013-02-28 18:32:00,
2013-02-28 10:37:00,61.0,49.1,30.41,NNE,21,2.0,5.0,65,0.00,,,0.00,LWC V1.12 B30,2013-02-28 18:37:00,
2013-02-28 10:42:00,61.2,49.3,30.41,East,82,1.0,7.0,65,0.00,,,0.00,LWC V1.12 B30,2013-02-28 18:42:00,
2013-02-28 10:47:00,61.7,49.4,30.40,NNE,23,3.0,7.0,64,0.00,,,0.00,LWC V1.12 B30,2013-02-28 18:47:00,
2013-02-28 10:52:00,61.9,49.2,30.40,NNE,31,4.0,6.0,63,0.00,,,0.00,LWC V1.12 B30,2013-02-28 18:52:00,
2013-02-28 10:57:00,61.8,49.5,30.40,WNW,302,1.0,3.0,64,0.00,,,0.00,LWC V1.12 B30,2013-02-28 18:57:00,
2013-02-28 11:02:00,62.2,49.9,30.40,NE,42,5.0,5.0,64,0.00,,,0.00,LWC V1.12 B30,2013-02-28 19:02:00,
2013-02-28 11:07:00,62.2,49.4,30.40,East,95,2.0,6.0,63,0.00,,,0.00,LWC V1.12 B30,2013-02-28 19:07:00,
2013-02-28 11:12:00,62.8,49.6,30.40,ESE,102,3.0,3.0,62,0.00,,,0.00,LWC V1.12 B30,2013-02-28 19:12:00,
2013-02-28 11:17:00,62.9,49.2,30.40,ESE,109,0.0,3.0,61,0.00,,,0.00,LWC V1.12 B30,2013-02-28 19:17:00,
2013-02-28 11:22:00,62.8,49.6,30.40,ENE,60,4.0,5.0,62,0.00,,,0.00,LWC V1.12 B30,2013-02-28 19:22:00,
2013-02-28 11:27:00,62.8,49.1,30.40,NE,41,4.0,6.0,61,0.00,,,0.00,LWC V1.12 B30,2013-02-28 19:27:00,
2013-02-28 11:32:00,63.3,49.6,30.40,NNE,31,3.0,4.0,61,0.00,,,0.00,LWC V1.12 B30,2013-02-28 19:32:00,
2013-02-28 11:37:00,63.7,50.0,30.40,NNE,21,2.0,5.0,61,0.00,,,0.00,LWC V1.12 B30,2013-02-28 19:37:00,
2013-02-28 11:42:00,63.7,49.5,30.40,North,353,0.0,5.0,60,0.00,,,0.00,LWC V1.12 B30,2013-02-28 19:42:00,
2013-02-28 11:47:00,63.8,49.6,30.39,NNE,24,6.0,6.0,60,0.00,,,0.00,LWC V1.12 B30,2013-02-28 19:47:00,
2013-02-28 11:52:00,63.5,49.4,30.39,South,187,1.0,5.0,60,0.00,,,0.00,LWC V1.12 B30,2013-02-28 19:52:00,
2013-02-28 11:57:00,64.3,50.1,30.39,ENE,69,4.0,6.0,60,0.00,,,0.00,LWC V1.12 B30,2013-02-28 19:57:00,
2013-02-28 12:02:00,64.1,49.9,30.39,ESE,107,2.0,4.0,60,0.00,,,0.00,LWC V1.12 B30,2013-02-28 20:02:00,
2013-02-28 12:07:00,64.6,50.4,30.39,North,0,4.0,4.0,60,0.00,,,0.00,LWC V1.12 B30,2013-02-28 20:07:00,
2013-02-28 12:12:00,64.9,50.2,30.39,NE,48,6.0,6.0,59,0.00,,,0.00,LWC V1.12 B30,2013-02-28 20:12:00,
2013-02-28 12:17:00,65.1,50.4,30.38,NE,50,3.0,4.0,59,0.00,,,0.00,LWC V1.12 B30,2013-02-28 20:17:00,
2013-02-28 12:22:00,65.3,50.1,30.38,NE,47,3.0,6.0,58,0.00,,,0.00,LWC V1.12 B30,2013-02-28 20:22:00,
2013-02-28 12:27:00,65.4,50.2,30.38,NE,34,1.0,6.0,58,0.00,,,0.00,LWC V1.12 B30,2013-02-28 20:27:00,
2013-02-28 12:32:00,65.5,50.3,30.37,NNE,21,3.0,6.0,58,0.00,,,0.00,LWC V1.12 B30,2013-02-28 20:32:00,
2013-02-28 12:37:00,65.6,50.4,30.37,North,351,5.0,6.0,58,0.00,,,0.00,LWC V1.12 B30,2013-02-28 20:37:00,
2013-02-28 12:42:00,65.6,49.9,30.37,NE,37,0.0,7.0,57,0.00,,,0.00,LWC V1.12 B30,2013-02-28 20:42:00,
2013-02-28 12:47:00,66.0,50.3,30.37,NNE,22,6.0,6.0,57,0.00,,,0.00,LWC V1.12 B30,2013-02-28 20:47:00,
2013-02-28 12:52:00,66.0,50.3,30.37,NNE,29,4.0,4.0,57,0.00,,,0.00,LWC V1.12 B30,2013-02-28 20:52:00,
2013-02-28 12:57:00,66.0,50.3,30.37,ENE,69,4.0,5.0,57,0.00,,,0.00,LWC V1.12 B30,2013-02-28 20:57:00,
2013-02-28 13:02:00,66.1,50.4,30.35,NE,42,4.0,8.0,57,0.00,,,0.00,LWC V1.12 B30,2013-02-28 21:02:00,
2013-02-28 13:07:00,66.2,50.5,30.35,North,9,4.0,4.0,57,0.00,,,0.00,LWC V1.12 B30,2013-02-28 21:07:00,
2013-02-28 13:12:00,66.7,50.5,30.35,ENE,78,3.0,7.0,56,0.00,,,0.00,LWC V1.12 B30,2013-02-28 21:12:00,
2013-02-28 13:17:00,66.7,50.5,30.35,North,0,3.0,7.0,56,0.00,,,0.00,LWC V1.12 B30,2013-02-28 21:17:00,
2013-02-28 13:22:00,66.7,50.0,30.35,NNE,25,5.0,11.0,55,0.00,,,0.00,LWC V1.12 B30,2013-02-28 21:22:00,
2013-02-28 13:27:00,67.0,49.8,30.35,North,10,8.0,9.0,54,0.00,,,0.00,LWC V1.12 B30,2013-02-28 21:27:00,
2013-02-28 13:32:00,67.4,50.2,30.35,ENE,61,2.0,5.0,54,0.00,,,0.00,LWC V1.12 B30,2013-02-28 21:32:00,
2013-02-28 13:37:00,67.6,49.8,30.35,ENE,65,2.0,10.0,53,0.00,,,0.00,LWC V1.12 B30,2013-02-28 21:37:00,
2013-02-28 13:42:00,67.7,50.4,30.35,NNE,33,3.0,9.0,54,0.00,,,0.00,LWC V1.12 B30,2013-02-28 21:42:00,
2013-02-28 13:47:00,67.9,50.1,30.35,NNE,21,5.0,5.0,53,0.00,,,0.00,LWC V1.12 B30,2013-02-28 21:47:00,
2013-02-28 13:52:00,67.5,50.3,30.35,ENE,57,8.0,8.0,54,0.00,,,0.00,LWC V1.12 B30,2013-02-28 21:52:00,
2013-02-28 13:57:00,67.2,49.5,30.35,NE,52,7.0,12.0,53,0.00,,,0.00,LWC V1.12 B30,2013-02-28 21:57:00,
2013-02-28 14:02:00,67.1,50.4,30.35,East,93,3.0,11.0,55,0.00,,,0.00,LWC V1.12 B30,2013-02-28 22:02:00,
2013-02-28 14:07:00,67.0,49.8,30.35,North,3,4.0,10.0,54,0.00,,,0.00,LWC V1.12 B30,2013-02-28 22:07:00,
2013-02-28 14:12:00,66.8,50.6,30.35,NE,43,7.0,10.0,56,0.00,,,0.00,LWC V1.12 B30,2013-02-28 22:12:00,
2013-02-28 14:17:00,66.5,50.3,30.35,ENE,69,6.0,10.0,56,0.00,,,0.00,LWC V1.12 B30,2013-02-28 22:17:00,
2013-02-28 14:22:00,66.0,50.3,30.35,NE,35,3.0,13.0,57,0.00,,,0.00,LWC V1.12 B30,2013-02-28 22:22:00,
2013-02-28 14:27:00,65.6,50.4,30.35,NNE,21,5.0,11.0,58,0.00,,,0.00,LWC V1.12 B30,2013-02-28 22:27:00,
2013-02-28 14:32:00,65.4,50.7,30.35,ESE,119,3.0,12.0,59,0.00,,,0.00,LWC V1.12 B30,2013-02-28 22:32:00,
2013-02-28 14:37:00,65.5,50.8,30.35,NNE,12,6.0,8.0,59,0.00,,,0.00,LWC V1.12 B30,2013-02-28 22:37:00,
2013-02-28 14:42:00,65.7,51.4,30.35,NNE,17,6.0,10.0,60,0.00,,,0.00,LWC V1.12 B30,2013-02-28 22:42:00,
2013-02-28 14:47:00,66.2,51.4,30.35,East,79,7.0,12.0,59,0.00,,,0.00,LWC V1.12 B30,2013-02-28 22:47:00,
2013-02-28 14:52:00,66.4,51.6,30.35,SSE,150,5.0,9.0,59,0.00,,,0.00,LWC V1.12 B30,2013-02-28 22:52:00,
2013-02-28 14:57:00,66.8,52.0,30.35,North,0,1.0,11.0,59,0.00,,,0.00,LWC V1.12 B30,2013-02-28 22:57:00,
2013-02-28 15:02:00,67.0,52.2,30.35,ENE,62,6.0,7.0,59,0.00,,,0.00,LWC V1.12 B30,2013-02-28 23:02:00,
2013-02-28 15:07:00,67.0,51.7,30.35,NE,36,4.0,4.0,58,0.00,,,0.00,LWC V1.12 B30,2013-02-28 23:07:00,
2013-02-28 15:12:00,66.8,51.5,30.35,East,100,1.0,5.0,58,0.00,,,0.00,LWC V1.12 B30,2013-02-28 23:12:00,
2013-02-28 15:17:00,66.9,51.6,30.35,NNE,33,4.0,9.0,58,0.00,,,0.00,LWC V1.12 B30,2013-02-28 23:17:00,
2013-02-28 15:22:00,66.8,51.1,30.35,East,88,9.0,10.0,57,0.00,,,0.00,LWC V1.12 B30,2013-02-28 23:22:00,
2013-02-28 15:27:00,66.8,51.1,30.35,North,10,2.0,7.0,57,0.00,,,0.00,LWC V1.12 B30,2013-02-28 23:27:00,
2013-02-28 15:32:00,66.9,50.7,30.35,East,86,10.0,11.0,56,0.00,,,0.00,LWC V1.12 B30,2013-02-28 23:32:00,
2013-02-28 15:37:00,66.8,50.6,30.35,ENE,60,5.0,11.0,56,0.00,,,0.00,LWC V1.12 B30,2013-02-28 23:37:00,
2013-02-28 15:42:00,66.2,50.5,30.35,NNE,17,5.0,14.0,57,0.00,,,0.00,LWC V1.12 B30,2013-02-28 23:42:00,
2013-02-28 15:47:00,66.4,50.7,30.35,East,88,4.0,10.0,57,0.00,,,0.00,LWC V1.12 B30,2013-02-28 23:47:00,
2013-02-28 15:52:00,66.1,50.4,30.35,NE,52,10.0,10.0,57,0.00,,,0.00,LWC V1.12 B30,2013-02-28 23:52:00,
2013-02-28 15:57:00,65.7,51.0,30.35,NNE,22,4.0,7.0,59,0.00,,,0.00,LWC V1.12 B30,2013-02-28 23:57:00,
2013-02-28 16:02:00,65.7,51.0,30.34,ESE,112,1.0,6.0,59,0.00,,,0.00,LWC V1.12 B30,2013-03-01 00:02:00,
2013-02-28 16:07:00,65.7,51.0,30.34,ESE,103,2.0,3.0,59,0.00,,,0.00,LWC V1.12 B30,2013-03-01 00:07:00,
2013-02-28 16:12:00,65.6,50.9,30.34,NE,42,4.0,5.0,59,0.00,,,0.00,LWC V1.12 B30,2013-03-01 00:12:00,
2013-02-28 16:17:00,65.3,51.1,30.35,NNE,12,3.0,7.0,60,0.00,,,0.00,LWC V1.12 B30,2013-03-01 00:17:00,
2013-02-28 16:22:00,65.1,50.9,30.35,NE,36,5.0,10.0,60,0.00,,,0.00,LWC V1.12 B30,2013-03-01 00:22:00,
2013-02-28 16:27:00,65.0,51.2,30.35,NE,37,5.0,7.0,61,0.00,,,0.00,LWC V1.12 B30,2013-03-01 00:27:00,
2013-02-28 16:32:00,65.0,51.7,30.35,ENE,60,5.0,6.0,62,0.00,,,0.00,LWC V1.12 B30,2013-03-01 00:32:00,
2013-02-28 16:37:00,64.6,51.3,30.35,NNE,21,7.0,11.0,62,0.00,,,0.00,LWC V1.12 B30,2013-03-01 00:37:00,
2013-02-28 16:42:00,64.5,52.0,30.35,NNE,17,5.0,10.0,64,0.00,,,0.00,LWC V1.12 B30,2013-03-01 00:42:00,
2013-02-28 16:47:00,64.5,52.0,30.35,NNE,31,9.0,12.0,64,0.00,,,0.00,LWC V1.12 B30,2013-03-01 00:47:00,
2013-02-28 16:52:00,64.5,52.0,30.35,NE,56,3.0,5.0,64,0.00,,,0.00,LWC V1.12 B30,2013-03-01 00:52:00,
2013-02-28 16:57:00,64.3,51.9,30.35,NE,50,5.0,5.0,64,0.00,,,0.00,LWC V1.12 B30,2013-03-01 00:57:00,
2013-02-28 17:02:00,64.0,51.6,30.34,North,3,5.0,6.0,64,0.00,,,0.00,LWC V1.12 B30,2013-03-01 01:02:00,
2013-02-28 17:07:00,63.7,51.7,30.34,NE,50,1.0,5.0,65,0.00,,,0.00,LWC V1.12 B30,2013-03-01 01:07:00,
2013-02-28 17:12:00,63.4,51.4,30.34,East,82,4.0,7.0,65,0.00,,,0.00,LWC V1.12 B30,2013-03-01 01:12:00,
2013-02-28 17:17:00,62.9,51.4,30.35,East,93,5.0,5.0,66,0.00,,,0.00,LWC V1.12 B30,2013-03-01 01:17:00,
2013-02-28 17:22:00,62.5,51.4,30.35,NE,38,3.0,3.0,67,0.00,,,0.00,LWC V1.12 B30,2013-03-01 01:22:00,
2013-02-28 17:27:00,62.2,51.5,30.35,East,90,0.0,4.0,68,0.00,,,0.00,LWC V1.12 B30,2013-03-01 01:27:00,
2013-02-28 17:32:00,61.9,51.2,30.35,NE,56,5.0,5.0,68,0.00,,,0.00,LWC V1.12 B30,2013-03-01 01:32:00,
2013-02-28 17:37:00,61.6,51.3,30.35,ESE,109,3.0,3.0,69,0.00,,,0.00,LWC V1.12 B30,2013-03-01 01:37:00,
2013-02-28 17:42:00,61.2,51.3,30.35,ENE,67,4.0,4.0,70,0.00,,,0.00,LWC V1.12 B30,2013-03-01 01:42:00,
2013-02-28 17:47:00,60.8,51.3,30.35,NE,34,0.0,2.0,71,0.00,,,0.00,LWC V1.12 B30,2013-03-01 01:47:00,
2013-02-28 17:52:00,60.5,51.0,30.35,ENE,72,1.0,2.0,71,0.00,,,0.00,LWC V1.12 B30,2013-03-01 01:52:00,
2013-02-28 17:57:00,60.2,50.8,30.35,NNE,29,2.0,5.0,71,0.00,,,0.00,LWC V1.12 B30,2013-03-01 01:57:00,
2013-02-28 18:02:00,59.9,50.5,30.35,NNE,22,2.0,5.0,71,0.00,,,0.00,LWC V1.12 B30,2013-03-01 02:02:00,
2013-02-28 18:07:00,59.6,50.6,30.35,North,359,2.0,4.0,72,0.00,,,0.00,LWC V1.12 B30,2013-03-01 02:07:00,
2013-02-28 18:12:00,59.4,50.7,30.35,NNE,12,0.0,2.0,73,0.00,,,0.00,LWC V1.12 B30,2013-03-01 02:12:00,
2013-02-28 18:17:00,59.3,50.6,30.36,NNE,14,0.0,0.0,73,0.00,,,0.00,LWC V1.12 B30,2013-03-01 02:17:00,
2013-02-28 18:22:00,58.9,50.6,30.36,NE,34,1.0,2.0,74,0.00,,,0.00,LWC V1.12 B30,2013-03-01 02:22:00,
2013-02-28 18:27:00,58.6,50.7,30.36,NNE,27,0.0,1.0,75,0.00,,,0.00,LWC V1.12 B30,2013-03-01 02:27:00,
2013-02-28 18:32:00,58.3,50.8,30.36,NNE,27,1.0,1.0,76,0.00,,,0.00,LWC V1.12 B30,2013-03-01 02:32:00,
2013-02-28 18:37:00,58.1,50.6,30.36,NNE,16,0.0,1.0,76,0.00,,,0.00,LWC V1.12 B30,2013-03-01 02:37:00,
2013-02-28 18:42:00,58.0,50.8,30.36,NE,45,1.0,1.0,77,0.00,,,0.00,LWC V1.12 B30,2013-03-01 02:42:00,
2013-02-28 18:47:00,57.8,50.6,30.36,NNE,28,0.0,1.0,77,0.00,,,0.00,LWC V1.12 B30,2013-03-01 02:47:00,
2013-02-28 18:52:00,57.6,50.4,30.36,NNE,20,0.0,0.0,77,0.00,,,0.00,LWC V1.12 B30,2013-03-01 02:52:00,
2013-02-28 18:57:00,57.4,50.6,30.36,NNE,20,0.0,0.0,78,0.00,,,0.00,LWC V1.12 B30,2013-03-01 02:57:00,
2013-02-28 19:02:00,57.1,50.3,30.37,NNE,21,0.0,0.0,78,0.00,,,0.00,LWC V1.12 B30,2013-03-01 03:02:00,
2013-02-28 19:07:00,56.9,50.5,30.37,NE,56,0.0,1.0,79,0.00,,,0.00,LWC V1.12 B30,2013-03-01 03:07:00,
2013-02-28 19:12:00,56.8,50.4,30.37,NNE,30,0.0,0.0,79,0.00,,,0.00,LWC V1.12 B30,2013-03-01 03:12:00,
2013-02-28 19:17:00,56.7,50.3,30.38,ENE,65,0.0,1.0,79,0.00,,,0.00,LWC V1.12 B30,2013-03-01 03:17:00,
2013-02-28 19:22:00,56.7,50.6,30.38,NE,39,2.0,3.0,80,0.00,,,0.00,LWC V1.12 B30,2013-03-01 03:22:00,
2013-02-28 19:27:00,56.6,50.5,30.38,ENE,75,2.0,3.0,80,0.00,,,0.00,LWC V1.12 B30,2013-03-01 03:27:00,
2013-02-28 19:32:00,56.4,50.6,30.38,NNE,26,1.0,3.0,81,0.00,,,0.00,LWC V1.12 B30,2013-03-01 03:32:00,
2013-02-28 19:37:00,56.3,50.5,30.38,North,1,0.0,0.0,81,0.00,,,0.00,LWC V1.12 B30,2013-03-01 03:37:00,
2013-02-28 19:42:00,56.0,50.2,30.38,North,0,0.0,0.0,81,0.00,,,0.00,LWC V1.12 B30,2013-03-01 03:42:00,
2013-02-28 19:47:00,55.8,50.4,30.38,North,5,0.0,0.0,82,0.00,,,0.00,LWC V1.12 B30,2013-03-01 03:47:00,
2013-02-28 19:52:00,55.5,50.4,30.38,North,5,0.0,0.0,83,0.00,,,0.00,LWC V1.12 B30,2013-03-01 03:52:00,
2013-02-28 19:57:00,55.3,50.5,30.38,NE,50,0.0,1.0,84,0.00,,,0.00,LWC V1.12 B30,2013-03-01 03:57:00,
2013-02-28 20:02:00,55.3,50.5,30.39,NNE,19,0.0,1.0,84,0.00,,,0.00,LWC V1.12 B30,2013-03-01 04:02:00,
2013-02-28 20:07:00,55.2,50.8,30.39,North,9,0.0,1.0,85,0.00,,,0.00,LWC V1.12 B30,2013-03-01 04:07:00,
2013-02-28 20:12:00,55.0,50.3,30.39,North,9,0.0,0.0,84,0.00,,,0.00,LWC V1.12 B30,2013-03-01 04:12:00,
2013-02-28 20:17:00,54.7,50.3,30.39,North,10,0.0,0.0,85,0.00,,,0.00,LWC V1.12 B30,2013-03-01 04:17:00,
2013-02-28 20:22:00,54.4,50.0,30.39,North,9,0.0,0.0,85,0.00,,,0.00,LWC V1.12 B30,2013-03-01 04:22:00,
2013-02-28 20:27:00,54.1,49.7,30.39,North,9,0.0,0.0,85,0.00,,,0.00,LWC V1.12 B30,2013-03-01 04:27:00,
2013-02-28 20:32:00,53.8,49.4,30.40,North,10,0.0,0.0,85,0.00,,,0.00,LWC V1.12 B30,2013-03-01 04:32:00,
2013-02-28 20:37:00,53.4,49.3,30.40,North,9,0.0,0.0,86,0.00,,,0.00,LWC V1.12 B30,2013-03-01 04:37:00,
2013-02-28 20:42:00,52.9,48.8,30.40,North,10,0.0,0.0,86,0.00,,,0.00,LWC V1.12 B30,2013-03-01 04:42:00,
2013-02-28 20:47:00,52.6,48.5,30.40,North,9,0.0,0.0,86,0.00,,,0.00,LWC V1.12 B30,2013-03-01 04:47:00,
2013-02-28 20:52:00,52.4,48.3,30.40,North,9,0.0,0.0,86,0.00,,,0.00,LWC V1.12 B30,2013-03-01 04:52:00,
2013-02-28 20:57:00,52.2,48.4,30.40,North,9,0.0,0.0,87,0.00,,,0.00,LWC V1.12 B30,2013-03-01 04:57:00,
2013-02-28 21:00:00,52.0,48.3,30.40,North,9,0.0,0.0,87,0.00,,,0.00,LWC V1.12 B30,2013-03-01 05:00:00,
2013-02-28 21:05:00,51.8,48.1,30.40,North,9,0.0,0.0,87,0.00,,,0.00,LWC V1.12 B30,2013-03-01 05:05:00,
2013-02-28 21:10:00,51.6,47.9,30.40,North,10,0.0,0.0,87,0.00,,,0.00,LWC V1.12 B30,2013-03-01 05:10:00,
2013-02-28 21:15:00,51.6,47.9,30.40,North,9,0.0,0.0,87,0.00,,,0.00,LWC V1.12 B30,2013-03-01 05:15:00,
2013-02-28 21:20:00,51.4,47.7,30.40,North,10,0.0,0.0,87,0.00,,,0.00,LWC V1.12 B30,2013-03-01 05:20:00,
2013-02-28 21:25:00,51.2,47.5,30.40,North,9,0.0,0.0,87,0.00,,,0.00,LWC V1.12 B30,2013-03-01 05:25:00,
2013-02-28 21:30:00,50.9,47.2,30.40,North,9,0.0,0.0,87,0.00,,,0.00,LWC V1.12 B30,2013-03-01 05:30:00,
2013-02-28 21:35:00,50.8,47.4,30.40,WNW,292,0.0,0.0,88,0.00,,,0.00,LWC V1.12 B30,2013-03-01 05:35:00,
2013-02-28 21:40:00,50.7,47.6,30.40,WNW,292,0.0,0.0,89,0.00,,,0.00,LWC V1.12 B30,2013-03-01 05:40:00,
2013-02-28 21:45:00,50.6,47.5,30.40,WNW,292,0.0,0.0,89,0.00,,,0.00,LWC V1.12 B30,2013-03-01 05:45:00,
2013-02-28 21:50:00,50.4,47.0,30.40,WNW,292,0.0,0.0,88,0.00,,,0.00,LWC V1.12 B30,2013-03-01 05:50:00,
2013-02-28 21:55:00,50.3,47.2,30.40,WNW,292,0.0,0.0,89,0.00,,,0.00,LWC V1.12 B30,2013-03-01 05:55:00,
2013-02-28 22:00:00,50.3,47.2,30.40,WNW,292,0.0,0.0,89,0.00,,,0.00,LWC V1.12 B30,2013-03-01 06:00:00,
2013-02-28 22:05:00,50.1,47.0,30.41,WNW,292,0.0,0.0,89,0.00,,,0.00,LWC V1.12 B30,2013-03-01 06:05:00,
2013-02-28 22:10:00,49.8,46.4,30.41,WNW,292,0.0,0.0,88,0.00,,,0.00,LWC V1.12 B30,2013-03-01 06:10:00,
2013-02-28 22:15:00,49.5,46.4,30.41,WNW,292,0.0,0.0,89,0.00,,,0.00,LWC V1.12 B30,2013-03-01 06:15:00,
2013-02-28 22:20:00,49.3,46.2,30.41,WNW,292,0.0,0.0,89,0.00,,,0.00,LWC V1.12 B30,2013-03-01 06:20:00,
2013-02-28 22:25:00,49.2,46.4,30.41,WNW,292,0.0,0.0,90,0.00,,,0.00,LWC V1.12 B30,2013-03-01 06:25:00,
2013-02-28 22:30:00,49.1,46.3,30.41,WNW,292,0.0,0.0,90,0.00,,,0.00,LWC V1.12 B30,2013-03-01 06:30:00,
2013-02-28 22:35:00,48.9,46.1,30.40,WNW,292,0.0,0.0,90,0.00,,,0.00,LWC V1.12 B30,2013-03-01 06:35:00,
2013-02-28 22:40:00,48.8,46.0,30.40,WNW,292,0.0,0.0,90,0.00,,,0.00,LWC V1.12 B30,2013-03-01 06:40:00,
2013-02-28 22:45:00,48.7,45.9,30.40,WNW,292,0.0,0.0,90,0.00,,,0.00,LWC V1.12 B30,2013-03-01 06:45:00,
2013-02-28 22:50:00,48.6,45.8,30.40,WNW,292,0.0,0.0,90,0.00,,,0.00,LWC V1.12 B30,2013-03-01 06:50:00,
2013-02-28 22:55:00,48.5,45.7,30.40,WNW,292,0.0,0.0,90,0.00,,,0.00,LWC V1.12 B30,2013-03-01 06:55:00,
2013-02-28 23:00:00,48.4,45.6,30.40,WNW,292,0.0,0.0,90,0.00,,,0.00,LWC V1.12 B30,2013-03-01 07:00:00,
2013-02-28 23:05:00,48.2,45.4,30.40,WNW,292,0.0,0.0,90,0.00,,,0.00,LWC V1.12 B30,2013-03-01 07:05:00,
2013-02-28 23:10:00,48.1,45.6,30.40,WNW,292,0.0,0.0,91,0.00,,,0.00,LWC V1.12 B30,2013-03-01 07:10:00,
2013-02-28 23:15:00,48.0,45.5,30.40,WNW,292,0.0,0.0,91,0.00,,,0.00,LWC V1.12 B30,2013-03-01 07:15:00,
2013-02-28 23:20:00,47.8,45.3,30.40,WNW,292,0.0,0.0,91,0.00,,,0.00,LWC V1.12 B30,2013-03-01 07:20:00,
2013-02-28 23:25:00,47.7,45.2,30.40,WNW,292,0.0,0.0,91,0.00,,,0.00,LWC V1.12 B30,2013-03-01 07:25:00,
2013-02-28 23:30:00,47.7,45.2,30.40,WNW,292,0.0,0.0,91,0.00,,,0.00,LWC V1.12 B30,2013-03-01 07:30:00,
2013-02-28 23:35:00,47.8,45.3,30.40,WNW,292,0.0,0.0,91,0.00,,,0.00,LWC V1.12 B30,2013-03-01 07:35:00,
2013-02-28 23:40:00,47.7,45.2,30.40,WNW,292,0.0,0.0,91,0.00,,,0.00,LWC V1.12 B30,2013-03-01 07:40:00,
2013-02-28 23:45:00,47.6,45.1,30.40,WNW,292,0.0,0.0,91,0.00,,,0.00,LWC V1.12 B30,2013-03-01 07:45:00,
2013-02-28 23:50:00,47.4,44.9,30.39,WNW,292,0.0,0.0,91,0.00,,,0.00,LWC V1.12 B30,2013-03-01 07:50:00,
2013-02-28 23:55:00,47.4,44.9,30.39,WNW,292,0.0,0.0,91,0.00,,,0.00,LWC V1.12 B30,2013-03-01 07:55:00,